createdAt,value
2018-06-27T00:00:55.088Z,12.3
2018-06-27T00:01:56.788Z,12.3
2018-06-27T00:02:58.540Z,12.3
2018-06-27T00:04:00.252Z,12.3
2018-06-27T00:05:03.294Z,12.1
2018-06-27T00:06:04.887Z,12.2
2018-06-27T00:07:07.948Z,12.2
2018-06-27T00:08:09.729Z,12.1
2018-06-27T00:09:11.440Z,12.1
2018-06-27T00:10:13.187Z,11.9
2018-06-27T00:11:14.974Z,12.0
2018-06-27T00:12:16.778Z,12.0
2018-06-27T00:13:18.505Z,11.9
2018-06-27T00:14:20.188Z,11.9
2018-06-27T00:15:21.895Z,11.9
2018-06-27T00:16:23.678Z,11.9
2018-06-27T00:17:25.397Z,11.9
2018-06-27T00:18:28.721Z,11.9
2018-06-27T00:19:30.470Z,11.9
2018-06-27T00:20:33.918Z,11.9
2018-06-27T00:21:35.536Z,12.0
2018-06-27T00:22:37.339Z,12.0
2018-06-27T00:23:39.127Z,12.0
2018-06-27T00:24:40.834Z,11.9
2018-06-27T00:25:43.392Z,11.9
2018-06-27T00:26:45.082Z,11.9
2018-06-27T00:27:46.820Z,11.9
2018-06-27T00:28:48.616Z,11.9
2018-06-27T00:29:50.391Z,11.9
2018-06-27T00:30:52.155Z,11.9
2018-06-27T00:31:55.302Z,11.9
2018-06-27T00:32:56.830Z,11.8
2018-06-27T00:33:58.653Z,11.7
2018-06-27T00:35:00.435Z,11.8
2018-06-27T00:36:02.116Z,11.8
2018-06-27T00:37:03.881Z,11.9
2018-06-27T00:38:05.607Z,11.9
2018-06-27T00:39:07.301Z,11.9
2018-06-27T00:40:09.060Z,11.8
2018-06-27T00:41:10.828Z,11.8
2018-06-27T00:42:12.572Z,11.8
2018-06-27T00:43:15.420Z,11.8
2018-06-27T00:44:17.191Z,11.8
2018-06-27T00:45:20.281Z,11.8
2018-06-27T00:46:22.033Z,11.8
2018-06-27T00:47:23.774Z,11.7
2018-06-27T00:48:25.529Z,11.7
2018-06-27T00:49:27.369Z,11.6
2018-06-27T00:50:30.429Z,11.7
2018-06-27T00:51:31.988Z,11.6
2018-06-27T00:52:35.177Z,11.6
2018-06-27T00:53:36.753Z,11.7
2018-06-27T00:54:39.599Z,11.6
2018-06-27T00:55:41.358Z,11.6
2018-06-27T00:56:43.165Z,11.5
2018-06-27T00:57:44.965Z,11.5
2018-06-27T00:58:46.698Z,11.4
2018-06-27T00:59:48.442Z,11.4
2018-06-27T01:00:51.289Z,11.4
2018-06-27T01:01:54.271Z,11.5
2018-06-27T01:02:57.139Z,11.4
2018-06-27T01:04:00.009Z,11.4
2018-06-27T01:05:01.643Z,11.6
2018-06-27T01:06:03.383Z,11.5
2018-06-27T01:07:05.150Z,11.5
2018-06-27T01:08:06.959Z,11.5
2018-06-27T01:09:08.677Z,11.5
2018-06-27T01:10:11.940Z,11.4
2018-06-27T01:11:13.655Z,11.4
2018-06-27T01:12:15.415Z,11.4
2018-06-27T01:13:18.625Z,11.4
2018-06-27T01:14:20.181Z,11.4
2018-06-27T01:15:21.934Z,11.3
2018-06-27T01:16:25.254Z,11.3
2018-06-27T01:17:28.654Z,11.3
2018-06-27T01:18:30.163Z,11.3
2018-06-27T01:19:31.942Z,11.4
2018-06-27T01:20:33.675Z,11.4
2018-06-27T01:21:35.465Z,11.4
2018-06-27T01:22:37.160Z,11.4
2018-06-27T01:23:38.908Z,11.4
2018-06-27T01:24:40.654Z,11.4
2018-06-27T01:25:42.390Z,11.4
2018-06-27T01:26:45.536Z,11.4
2018-06-27T01:27:47.159Z,11.4
2018-06-27T01:28:50.446Z,11.3
2018-06-27T01:29:52.014Z,11.3
2018-06-27T01:30:53.846Z,11.4
2018-06-27T01:31:55.599Z,11.3
2018-06-27T01:32:57.307Z,11.4
2018-06-27T01:33:59.026Z,11.4
2018-06-27T01:35:00.754Z,11.4
2018-06-27T01:36:02.481Z,11.3
2018-06-27T01:37:04.169Z,11.3
2018-06-27T01:38:08.375Z,11.3
2018-06-27T01:39:10.133Z,11.3
2018-06-27T01:40:11.956Z,11.3
2018-06-27T01:41:13.675Z,11.3
2018-06-27T01:42:15.389Z,11.3
2018-06-27T01:43:17.126Z,11.2
2018-06-27T01:44:18.891Z,11.2
2018-06-27T01:45:20.600Z,11.1
2018-06-27T01:46:22.408Z,11.2
2018-06-27T01:47:24.209Z,11.1
2018-06-27T01:48:26.003Z,11.2
2018-06-27T01:49:27.684Z,11.2
2018-06-27T01:50:29.437Z,11.1
2018-06-27T01:51:31.158Z,11.2
2018-06-27T01:52:34.290Z,11.2
2018-06-27T01:53:37.251Z,11.2
2018-06-27T01:54:38.818Z,11.1
2018-06-27T01:55:40.609Z,11.2
2018-06-27T01:56:43.768Z,11.1
2018-06-27T01:57:45.475Z,11.1
2018-06-27T01:58:47.251Z,11.2
2018-06-27T01:59:50.249Z,11.2
2018-06-27T02:00:51.940Z,11.1
2018-06-27T02:01:53.721Z,11.1
2018-06-27T02:02:55.482Z,11.1
2018-06-27T02:03:58.821Z,11.1
2018-06-27T02:05:00.482Z,11.1
2018-06-27T02:06:02.218Z,11.1
2018-06-27T02:07:03.993Z,11.0
2018-06-27T02:08:05.693Z,11.1
2018-06-27T02:09:08.403Z,11.1
2018-06-27T02:10:10.160Z,11.2
2018-06-27T02:11:11.921Z,11.2
2018-06-27T02:12:15.176Z,11.3
2018-06-27T02:13:16.796Z,11.1
2018-06-27T02:14:18.530Z,11.2
2018-06-27T02:15:20.309Z,11.2
2018-06-27T02:16:22.129Z,11.1
2018-06-27T02:17:23.864Z,11.2
2018-06-27T02:18:25.609Z,11.1
2018-06-27T02:19:28.848Z,11.1
2018-06-27T02:20:30.497Z,11.1
2018-06-27T02:21:32.256Z,11.2
2018-06-27T02:22:34.082Z,11.1
2018-06-27T02:23:35.890Z,11.2
2018-06-27T02:24:37.675Z,11.2
2018-06-27T02:25:40.648Z,11.1
2018-06-27T02:26:42.229Z,11.0
2018-06-27T02:27:45.913Z,10.9
2018-06-27T02:28:49.037Z,11.1
2018-06-27T02:29:50.671Z,11.0
2018-06-27T02:30:52.355Z,11.0
2018-06-27T02:31:54.050Z,11.0
2018-06-27T02:32:55.833Z,11.0
2018-06-27T02:33:58.981Z,10.9
2018-06-27T02:35:00.632Z,10.9
2018-06-27T02:36:02.408Z,10.9
2018-06-27T02:37:04.148Z,10.9
2018-06-27T02:38:05.801Z,10.9
2018-06-27T02:39:07.599Z,10.9
2018-06-27T02:40:09.235Z,10.7
2018-06-27T02:41:12.525Z,10.9
2018-06-27T02:42:14.219Z,10.9
2018-06-27T02:43:15.920Z,10.9
2018-06-27T02:44:17.671Z,10.9
2018-06-27T02:45:19.505Z,10.9
2018-06-27T02:46:21.218Z,10.9
2018-06-27T02:47:22.952Z,10.9
2018-06-27T02:48:24.720Z,10.8
2018-06-27T02:49:26.453Z,10.7
2018-06-27T02:50:28.196Z,10.7
2018-06-27T02:51:29.924Z,10.9
2018-06-27T02:52:31.760Z,10.9
2018-06-27T02:53:34.897Z,10.8
2018-06-27T02:54:36.621Z,10.9
2018-06-27T02:55:38.790Z,10.9
2018-06-27T02:56:41.619Z,10.8
2018-06-27T02:57:44.303Z,10.8
2018-06-27T02:58:47.150Z,10.9
2018-06-27T02:59:48.788Z,10.8
2018-06-27T03:00:50.516Z,10.9
2018-06-27T03:01:52.287Z,10.9
2018-06-27T03:02:55.236Z,10.9
2018-06-27T03:03:56.935Z,10.9
2018-06-27T03:04:59.794Z,10.9
2018-06-27T03:06:01.634Z,10.9
2018-06-27T03:07:03.414Z,11.0
2018-06-27T03:08:05.164Z,10.9
2018-06-27T03:09:06.985Z,10.9
2018-06-27T03:10:09.277Z,10.9
2018-06-27T03:11:11.049Z,10.9
2018-06-27T03:12:12.810Z,10.9
2018-06-27T03:13:14.700Z,10.9
2018-06-27T03:14:16.483Z,10.9
2018-06-27T03:15:18.215Z,10.8
2018-06-27T03:16:19.990Z,10.7
2018-06-27T03:17:22.779Z,10.8
2018-06-27T03:18:24.456Z,10.8
2018-06-27T03:19:26.220Z,10.9
2018-06-27T03:20:28.005Z,10.9
2018-06-27T03:21:29.684Z,10.9
2018-06-27T03:22:31.360Z,10.9
2018-06-27T03:23:33.117Z,10.8
2018-06-27T03:24:34.830Z,10.9
2018-06-27T03:25:36.590Z,10.8
2018-06-27T03:26:39.631Z,10.8
2018-06-27T03:27:41.441Z,10.8
2018-06-27T03:28:44.107Z,10.7
2018-06-27T03:29:45.734Z,10.8
2018-06-27T03:30:47.474Z,10.7
2018-06-27T03:31:50.384Z,10.7
2018-06-27T03:32:52.091Z,10.7
2018-06-27T03:33:53.868Z,10.6
2018-06-27T03:34:55.596Z,10.6
2018-06-27T03:35:57.374Z,10.6
2018-06-27T03:36:59.178Z,10.6
2018-06-27T03:38:00.889Z,10.8
2018-06-27T03:39:02.539Z,10.7
2018-06-27T03:40:04.283Z,10.7
2018-06-27T03:41:05.967Z,10.7
2018-06-27T03:42:07.753Z,10.8
2018-06-27T03:43:09.526Z,10.8
2018-06-27T03:44:11.363Z,10.8
2018-06-27T03:45:14.285Z,10.8
2018-06-27T03:46:15.945Z,10.9
2018-06-27T03:47:17.685Z,10.8
2018-06-27T03:48:19.452Z,10.8
2018-06-27T03:49:21.252Z,10.9
2018-06-27T03:50:23.033Z,10.8
2018-06-27T03:51:24.771Z,10.8
2018-06-27T03:52:26.460Z,10.8
2018-06-27T03:53:29.677Z,10.9
2018-06-27T03:54:31.352Z,10.9
2018-06-27T03:55:33.186Z,11.0
2018-06-27T03:56:34.938Z,10.9
2018-06-27T03:57:37.880Z,11.0
2018-06-27T03:58:39.498Z,10.9
2018-06-27T03:59:41.328Z,11.0
2018-06-27T04:00:43.069Z,11.1
2018-06-27T04:01:44.766Z,11.1
2018-06-27T04:02:46.505Z,11.0
2018-06-27T04:03:48.174Z,11.0
2018-06-27T04:04:49.932Z,11.0
2018-06-27T04:05:51.671Z,11.1
2018-06-27T04:06:54.484Z,11.2
2018-06-27T04:07:56.136Z,11.2
2018-06-27T04:08:58.199Z,11.2
2018-06-27T04:09:59.969Z,11.2
2018-06-27T04:11:01.777Z,11.3
2018-06-27T04:12:04.385Z,11.3
2018-06-27T04:13:06.260Z,11.4
2018-06-27T04:14:08.466Z,11.4
2018-06-27T04:15:10.206Z,11.4
2018-06-27T04:16:11.988Z,11.4
2018-06-27T04:17:13.729Z,11.5
2018-06-27T04:18:15.530Z,11.6
2018-06-27T04:19:17.319Z,11.6
2018-06-27T04:20:19.109Z,11.7
2018-06-27T04:21:20.877Z,11.7
2018-06-27T04:22:22.635Z,11.6
2018-06-27T04:23:24.459Z,11.7
2018-06-27T04:24:26.251Z,11.8
2018-06-27T04:25:27.905Z,11.8
2018-06-27T04:26:29.697Z,11.9
2018-06-27T04:27:31.432Z,11.9
2018-06-27T04:28:33.206Z,11.9
2018-06-27T04:29:36.295Z,12.0
2018-06-27T04:30:37.883Z,12.1
2018-06-27T04:31:39.572Z,12.1
2018-06-27T04:32:41.274Z,12.2
2018-06-27T04:33:43.039Z,12.2
2018-06-27T04:34:44.759Z,12.2
2018-06-27T04:35:46.680Z,12.3
2018-06-27T04:36:48.285Z,12.3
2018-06-27T04:37:50.044Z,12.4
2018-06-27T04:38:53.249Z,12.5
2018-06-27T04:39:54.985Z,12.7
2018-06-27T04:40:56.762Z,12.7
2018-06-27T04:41:58.462Z,12.7
2018-06-27T04:43:00.203Z,12.9
2018-06-27T04:44:01.914Z,12.8
2018-06-27T04:45:03.742Z,12.9
2018-06-27T04:46:05.421Z,13.0
2018-06-27T04:47:07.167Z,13.0
2018-06-27T04:48:09.120Z,13.1
2018-06-27T04:49:10.879Z,13.1
2018-06-27T04:50:12.585Z,13.1
2018-06-27T04:51:14.273Z,13.3
2018-06-27T04:52:16.081Z,13.2
2018-06-27T04:53:19.189Z,13.3
2018-06-27T04:54:22.280Z,13.4
2018-06-27T04:55:23.912Z,13.5
2018-06-27T04:56:25.688Z,13.6
2018-06-27T04:57:27.430Z,13.8
2018-06-27T04:58:29.239Z,13.9
2018-06-27T04:59:30.948Z,14.1
2018-06-27T05:00:32.714Z,14.1
2018-06-27T05:01:35.502Z,14.3
2018-06-27T05:02:38.310Z,14.4
2018-06-27T05:03:40.075Z,14.4
2018-06-27T05:04:42.703Z,14.4
2018-06-27T05:05:44.454Z,14.5
2018-06-27T05:06:47.215Z,14.7
2018-06-27T05:07:48.832Z,14.9
2018-06-27T05:08:50.611Z,15.0
2018-06-27T05:09:52.350Z,15.1
2018-06-27T05:10:54.098Z,15.1
2018-06-27T05:11:55.854Z,15.2
2018-06-27T05:12:57.506Z,15.3
2018-06-27T05:13:59.255Z,15.4
2018-06-27T05:15:02.129Z,15.5
2018-06-27T05:16:03.841Z,15.7
2018-06-27T05:17:05.465Z,15.8
2018-06-27T05:18:07.197Z,15.9
2018-06-27T05:19:08.982Z,15.9
2018-06-27T05:20:10.718Z,15.9
2018-06-27T05:21:13.291Z,16.0
2018-06-27T05:22:14.999Z,16.0
2018-06-27T05:23:16.686Z,16.2
2018-06-27T05:24:19.273Z,16.2
2018-06-27T05:25:21.042Z,16.2
2018-06-27T05:26:22.759Z,16.5
2018-06-27T05:27:24.329Z,16.7
2018-06-27T05:28:25.752Z,16.7
2018-06-27T05:29:27.240Z,16.7
2018-06-27T05:30:28.756Z,16.8
2018-06-27T05:31:30.243Z,17.0
2018-06-27T05:32:31.700Z,17.1
2018-06-27T05:33:33.173Z,17.3
2018-06-27T05:34:34.687Z,17.3
2018-06-27T05:35:36.169Z,17.4
2018-06-27T05:36:37.712Z,17.6
2018-06-27T05:37:39.167Z,17.7
2018-06-27T05:38:40.590Z,17.8
2018-06-27T05:39:42.112Z,17.8
2018-06-27T05:40:43.592Z,18.0
2018-06-27T05:41:45.032Z,18.0
2018-06-27T05:42:46.478Z,18.0
2018-06-27T05:43:47.906Z,18.2
2018-06-27T05:44:49.419Z,18.2
2018-06-27T05:45:50.881Z,18.2
2018-06-27T05:46:52.381Z,18.4
2018-06-27T05:47:53.818Z,18.5
2018-06-27T05:48:55.271Z,18.8
2018-06-27T05:49:56.713Z,18.8
2018-06-27T05:50:58.159Z,18.9
2018-06-27T05:51:59.610Z,19.1
2018-06-27T05:53:01.037Z,19.2
2018-06-27T05:54:02.493Z,19.2
2018-06-27T05:55:03.966Z,19.3
2018-06-27T05:56:05.417Z,19.4
2018-06-27T05:57:06.875Z,19.5
2018-06-27T05:58:08.358Z,19.5
2018-06-27T05:59:09.821Z,19.6
2018-06-27T06:00:11.272Z,19.6
2018-06-27T06:01:12.724Z,19.6
2018-06-27T06:02:14.184Z,19.7
2018-06-27T06:03:15.666Z,19.7
2018-06-27T06:04:17.141Z,19.8
2018-06-27T06:05:18.617Z,19.9
2018-06-27T06:06:20.084Z,19.9
2018-06-27T06:07:21.549Z,20.0
2018-06-27T06:08:23.016Z,20.3
2018-06-27T06:09:24.456Z,20.3
2018-06-27T06:10:25.925Z,20.5
2018-06-27T06:11:27.394Z,20.4
2018-06-27T06:12:28.789Z,20.4
2018-06-27T06:13:30.236Z,20.4
2018-06-27T06:14:31.756Z,20.6
2018-06-27T06:15:33.193Z,20.7
2018-06-27T06:16:34.646Z,20.9
2018-06-27T06:17:36.109Z,21.0
2018-06-27T06:18:37.550Z,21.0
2018-06-27T06:19:39.089Z,21.1
2018-06-27T06:20:40.526Z,21.3
2018-06-27T06:21:42.002Z,21.3
2018-06-27T06:22:43.435Z,21.6
2018-06-27T06:23:44.870Z,21.7
2018-06-27T06:24:46.362Z,22.0
2018-06-27T06:25:47.810Z,21.8
2018-06-27T06:26:49.321Z,21.7
2018-06-27T06:27:50.849Z,21.8
2018-06-27T06:28:52.318Z,21.7
2018-06-27T06:29:53.771Z,21.3
2018-06-27T06:30:55.215Z,21.7
2018-06-27T06:31:56.741Z,21.7
2018-06-27T06:32:58.227Z,21.9
2018-06-27T06:33:59.668Z,22.2
2018-06-27T06:35:01.171Z,22.3
2018-06-27T06:36:02.611Z,22.4
2018-06-27T06:37:04.101Z,22.7
2018-06-27T06:38:05.565Z,22.6
2018-06-27T06:39:07.034Z,22.6
2018-06-27T06:40:08.494Z,22.6
2018-06-27T06:41:09.977Z,22.7
2018-06-27T06:42:11.427Z,23.0
2018-06-27T06:43:12.869Z,23.0
2018-06-27T06:44:14.365Z,22.9
2018-06-27T06:45:15.791Z,22.9
2018-06-27T06:46:17.273Z,23.2
2018-06-27T06:47:18.688Z,23.0
2018-06-27T06:48:20.131Z,23.1
2018-06-27T06:49:21.588Z,23.2
2018-06-27T06:50:23.061Z,23.3
2018-06-27T06:51:24.499Z,23.4
2018-06-27T06:52:25.998Z,23.6
2018-06-27T06:53:27.463Z,23.7
2018-06-27T06:54:28.918Z,23.9
2018-06-27T06:55:30.379Z,24.0
2018-06-27T06:56:31.868Z,24.1
2018-06-27T06:57:33.317Z,24.0
2018-06-27T06:58:34.762Z,24.1
2018-06-27T06:59:36.241Z,24.5
2018-06-27T07:00:37.688Z,24.4
2018-06-27T07:01:39.114Z,24.3
2018-06-27T07:02:40.559Z,24.6
2018-06-27T07:03:42.036Z,24.6
2018-06-27T07:04:43.497Z,24.8
2018-06-27T07:05:44.995Z,24.6
2018-06-27T07:06:46.420Z,24.8
2018-06-27T07:07:47.904Z,24.7
2018-06-27T07:08:49.352Z,24.8
2018-06-27T07:09:51.026Z,24.9
2018-06-27T07:10:52.467Z,25.0
2018-06-27T07:11:53.950Z,25.1
2018-06-27T07:12:55.394Z,25.1
2018-06-27T07:13:56.871Z,25.1
2018-06-27T07:14:58.369Z,25.0
2018-06-27T07:15:59.796Z,24.8
2018-06-27T07:17:01.289Z,24.9
2018-06-27T07:18:02.711Z,25.0
2018-06-27T07:19:04.355Z,25.3
2018-06-27T07:20:05.780Z,25.2
2018-06-27T07:21:07.268Z,25.2
2018-06-27T07:22:08.776Z,25.5
2018-06-27T07:23:10.267Z,25.3
2018-06-27T07:24:11.740Z,25.2
2018-06-27T07:25:13.213Z,25.3
2018-06-27T07:26:14.663Z,25.3
2018-06-27T07:27:16.203Z,25.4
2018-06-27T07:28:17.704Z,25.4
2018-06-27T07:29:19.158Z,25.4
2018-06-27T07:30:20.689Z,25.6
2018-06-27T07:31:22.283Z,25.6
2018-06-27T07:32:23.689Z,25.4
2018-06-27T07:33:25.198Z,25.4
2018-06-27T07:34:26.740Z,25.5
2018-06-27T07:35:28.219Z,25.8
2018-06-27T07:36:29.671Z,26.0
2018-06-27T07:37:31.095Z,26.2
2018-06-27T07:38:32.540Z,26.1
2018-06-27T07:39:34.045Z,26.1
2018-06-27T07:40:35.491Z,26.1
2018-06-27T07:41:37.097Z,25.9
2018-06-27T07:42:38.712Z,26.1
2018-06-27T07:43:40.583Z,26.0
2018-06-27T07:44:42.241Z,25.8
2018-06-27T07:45:43.906Z,25.6
2018-06-27T07:46:45.381Z,25.8
2018-06-27T07:47:47.051Z,25.9
2018-06-27T07:48:48.787Z,26.1
2018-06-27T07:49:50.254Z,26.1
2018-06-27T07:50:51.750Z,26.5
2018-06-27T07:51:53.169Z,26.5
2018-06-27T07:52:54.618Z,26.7
2018-06-27T07:53:56.315Z,26.7
2018-06-27T07:54:57.751Z,26.7
2018-06-27T07:55:59.513Z,26.8
2018-06-27T07:57:00.973Z,27.0
2018-06-27T07:58:02.398Z,27.2
2018-06-27T07:59:04.147Z,27.3
2018-06-27T08:00:05.642Z,27.2
2018-06-27T08:01:07.104Z,26.7
2018-06-27T08:02:08.575Z,26.5
2018-06-27T08:03:10.024Z,26.4
2018-06-27T08:04:11.837Z,26.3
2018-06-27T08:05:13.564Z,26.4
2018-06-27T08:06:15.334Z,26.6
2018-06-27T08:07:17.129Z,26.6
2018-06-27T08:08:18.749Z,26.8
2018-06-27T08:09:20.193Z,27.0
2018-06-27T08:10:21.697Z,27.0
2018-06-27T08:11:23.209Z,27.2
2018-06-27T08:12:24.720Z,27.1
2018-06-27T08:13:26.372Z,27.4
2018-06-27T08:14:27.836Z,27.8
2018-06-27T08:15:29.315Z,27.5
2018-06-27T08:16:30.823Z,27.8
2018-06-27T08:17:32.585Z,27.9
2018-06-27T08:18:34.392Z,27.6
2018-06-27T08:19:36.106Z,27.3
2018-06-27T08:20:37.863Z,27.3
2018-06-27T08:21:39.357Z,27.3
2018-06-27T08:22:40.808Z,27.4
2018-06-27T08:23:42.336Z,27.5
2018-06-27T08:24:43.778Z,27.8
2018-06-27T08:25:45.233Z,27.9
2018-06-27T08:26:46.899Z,28.3
2018-06-27T08:27:48.638Z,28.4
2018-06-27T08:28:50.182Z,28.6
2018-06-27T08:29:51.675Z,28.3
2018-06-27T08:30:53.140Z,28.3
2018-06-27T08:31:54.829Z,28.6
2018-06-27T08:32:56.341Z,28.5
2018-06-27T08:33:57.803Z,28.5
2018-06-27T08:34:59.463Z,28.7
2018-06-27T08:36:00.989Z,28.8
2018-06-27T08:37:02.432Z,28.8
2018-06-27T08:38:03.898Z,28.7
2018-06-27T08:39:05.461Z,28.7
2018-06-27T08:40:06.966Z,28.8
2018-06-27T08:41:08.488Z,29.0
2018-06-27T08:42:09.940Z,29.2
2018-06-27T08:43:11.427Z,29.4
2018-06-27T08:44:12.913Z,29.5
2018-06-27T08:45:14.404Z,29.4
2018-06-27T08:46:15.857Z,29.5
2018-06-27T08:47:17.532Z,29.5
2018-06-27T08:48:19.017Z,29.7
2018-06-27T08:49:20.455Z,29.9
2018-06-27T08:50:21.892Z,30.0
2018-06-27T08:51:23.379Z,29.9
2018-06-27T08:52:24.950Z,30.0
2018-06-27T08:53:26.387Z,30.3
2018-06-27T08:54:27.851Z,30.3
2018-06-27T08:55:29.631Z,30.3
2018-06-27T08:56:31.456Z,29.9
2018-06-27T08:57:33.209Z,29.9
2018-06-27T08:58:34.743Z,30.0
2018-06-27T08:59:36.181Z,29.7
2018-06-27T09:00:37.627Z,29.8
2018-06-27T09:01:39.300Z,29.8
2018-06-27T09:02:40.784Z,29.8
2018-06-27T09:03:42.474Z,30.0
2018-06-27T09:04:44.224Z,30.1
2018-06-27T09:05:46.005Z,30.3
2018-06-27T09:06:47.709Z,30.8
2018-06-27T09:07:49.486Z,30.6
2018-06-27T09:08:51.086Z,30.6
2018-06-27T09:09:52.903Z,30.8
2018-06-27T09:10:54.430Z,30.9
2018-06-27T09:11:55.900Z,30.8
2018-06-27T09:12:57.611Z,30.9
2018-06-27T09:13:59.181Z,31.0
2018-06-27T09:15:00.721Z,31.0
2018-06-27T09:16:02.266Z,31.0
2018-06-27T09:17:03.791Z,31.3
2018-06-27T09:18:05.280Z,31.6
2018-06-27T09:19:06.729Z,32.0
2018-06-27T09:20:08.212Z,32.0
2018-06-27T09:21:09.726Z,31.9
2018-06-27T09:22:11.202Z,31.9
2018-06-27T09:23:12.678Z,31.7
2018-06-27T09:24:14.144Z,31.6
2018-06-27T09:25:15.636Z,31.3
2018-06-27T09:26:17.114Z,31.4
2018-06-27T09:27:18.626Z,31.5
2018-06-27T09:28:20.337Z,31.7
2018-06-27T09:29:21.954Z,31.6
2018-06-27T09:30:23.666Z,31.8
2018-06-27T09:31:25.251Z,31.9
2018-06-27T09:32:26.701Z,31.9
2018-06-27T09:33:28.416Z,32.0
2018-06-27T09:34:30.034Z,32.4
2018-06-27T09:35:31.752Z,32.4
2018-06-27T09:36:33.265Z,32.5
2018-06-27T09:37:34.793Z,32.6
2018-06-27T09:38:36.312Z,32.9
2018-06-27T09:39:37.882Z,32.8
2018-06-27T09:40:39.378Z,33.3
2018-06-27T09:41:41.014Z,32.9
2018-06-27T09:42:42.564Z,33.2
2018-06-27T09:43:44.115Z,33.2
2018-06-27T09:44:45.785Z,33.4
2018-06-27T09:45:47.373Z,33.3
2018-06-27T09:46:48.880Z,32.8
2018-06-27T09:47:50.596Z,32.9
2018-06-27T09:48:52.111Z,32.9
2018-06-27T09:49:53.839Z,32.9
2018-06-27T09:50:55.411Z,32.8
2018-06-27T09:51:56.967Z,33.1
2018-06-27T09:52:58.531Z,33.2
2018-06-27T09:54:00.284Z,33.1
2018-06-27T09:55:02.124Z,33.3
2018-06-27T09:56:03.692Z,33.4
2018-06-27T09:57:05.247Z,33.2
2018-06-27T09:58:06.849Z,33.2
2018-06-27T09:59:08.428Z,33.1
2018-06-27T10:00:10.127Z,32.7
2018-06-27T10:01:11.870Z,32.8
2018-06-27T10:02:13.469Z,33.0
2018-06-27T10:03:14.964Z,33.4
2018-06-27T10:04:16.463Z,33.2
2018-06-27T10:05:18.278Z,33.4
2018-06-27T10:06:19.878Z,33.4
2018-06-27T10:07:21.562Z,33.0
2018-06-27T10:08:23.353Z,33.0
2018-06-27T10:09:24.940Z,33.2
2018-06-27T10:10:26.392Z,33.4
2018-06-27T10:11:28.005Z,33.4
2018-06-27T10:12:29.460Z,33.7
2018-06-27T10:13:31.019Z,33.8
2018-06-27T10:14:32.572Z,33.9
2018-06-27T10:15:34.236Z,34.0
2018-06-27T10:16:35.984Z,34.2
2018-06-27T10:17:37.712Z,34.4
2018-06-27T10:18:39.445Z,34.6
2018-06-27T10:19:41.123Z,34.6
2018-06-27T10:20:42.910Z,34.2
2018-06-27T10:21:44.633Z,34.4
2018-06-27T10:22:46.359Z,34.3
2018-06-27T10:23:48.060Z,34.0
2018-06-27T10:24:49.672Z,33.9
2018-06-27T10:25:51.265Z,33.9
2018-06-27T10:26:52.810Z,34.1
2018-06-27T10:27:54.320Z,34.2
2018-06-27T10:28:55.818Z,33.9
2018-06-27T10:29:57.336Z,33.2
2018-06-27T10:30:59.372Z,32.9
2018-06-27T10:32:01.010Z,33.1
2018-06-27T10:33:02.755Z,33.0
2018-06-27T10:34:04.530Z,33.0
2018-06-27T10:35:06.206Z,32.6
2018-06-27T10:36:07.992Z,33.0
2018-06-27T10:37:09.597Z,32.8
2018-06-27T10:38:11.167Z,33.2
2018-06-27T10:39:12.809Z,33.2
2018-06-27T10:40:14.306Z,33.3
2018-06-27T10:41:15.774Z,33.2
2018-06-27T10:42:17.436Z,33.1
2018-06-27T10:43:19.153Z,33.4
2018-06-27T10:44:21.493Z,33.2
2018-06-27T10:45:23.147Z,33.2
2018-06-27T10:46:24.758Z,32.8
2018-06-27T10:47:26.347Z,33.0
2018-06-27T10:48:28.287Z,33.3
2018-06-27T10:49:30.468Z,33.7
2018-06-27T10:50:32.125Z,33.9
2018-06-27T10:51:34.321Z,33.8
2018-06-27T10:52:36.436Z,33.5
2018-06-27T10:53:38.232Z,33.5
2018-06-27T10:54:40.236Z,33.2
2018-06-27T10:55:42.384Z,32.9
2018-06-27T10:56:44.317Z,33.1
2018-06-27T10:57:46.555Z,33.3
2018-06-27T10:58:48.727Z,33.9
2018-06-27T10:59:50.823Z,34.2
2018-06-27T11:00:52.630Z,34.3
2018-06-27T11:01:54.583Z,34.2
2018-06-27T11:02:56.702Z,34.2
2018-06-27T11:03:59.045Z,33.8
2018-06-27T11:05:01.115Z,33.0
2018-06-27T11:06:02.972Z,32.6
2018-06-27T11:07:04.959Z,32.0
2018-06-27T11:08:06.606Z,31.7
2018-06-27T11:09:09.242Z,31.7
2018-06-27T11:10:11.171Z,31.3
2018-06-27T11:11:13.114Z,31.5
2018-06-27T11:12:15.351Z,31.4
2018-06-27T11:13:17.343Z,31.3
2018-06-27T11:14:19.307Z,31.0
2018-06-27T11:15:21.249Z,31.1
2018-06-27T11:16:22.873Z,31.7
2018-06-27T11:17:24.632Z,32.0
2018-06-27T11:18:26.445Z,32.4
2018-06-27T11:19:28.309Z,32.7
2018-06-27T11:20:30.464Z,32.7
2018-06-27T11:21:32.394Z,32.7
2018-06-27T11:22:34.687Z,32.8
2018-06-27T11:23:36.435Z,33.0
2018-06-27T11:24:38.549Z,33.0
2018-06-27T11:25:40.989Z,33.3
2018-06-27T11:26:42.937Z,33.3
2018-06-27T11:27:44.727Z,32.9
2018-06-27T11:28:47.106Z,32.5
2018-06-27T11:29:48.948Z,32.7
2018-06-27T11:30:50.651Z,32.7
2018-06-27T11:31:53.517Z,32.9
2018-06-27T11:32:55.862Z,33.4
2018-06-27T11:33:57.872Z,33.5
2018-06-27T11:34:59.934Z,33.3
2018-06-27T11:36:01.748Z,32.9
2018-06-27T11:37:04.057Z,33.0
2018-06-27T11:38:06.155Z,32.6
2018-06-27T11:39:07.989Z,32.5
2018-06-27T11:40:10.424Z,32.2
2018-06-27T11:41:12.692Z,31.7
2018-06-27T11:42:14.969Z,31.6
2018-06-27T11:43:16.929Z,32.1
2018-06-27T11:44:18.650Z,32.5
2018-06-27T11:45:20.604Z,32.8
2018-06-27T11:46:22.557Z,32.6
2018-06-27T11:47:25.274Z,32.7
2018-06-27T11:48:27.057Z,33.0
2018-06-27T11:49:28.854Z,33.1
2018-06-27T11:50:30.820Z,33.2
2018-06-27T11:51:32.682Z,32.4
2018-06-27T11:52:34.392Z,32.1
2018-06-27T11:53:36.093Z,31.8
2018-06-27T11:54:37.878Z,32.3
2018-06-27T11:55:40.099Z,31.9
2018-06-27T11:56:41.930Z,31.7
2018-06-27T11:57:43.724Z,31.7
2018-06-27T11:58:45.795Z,31.7
2018-06-27T11:59:47.744Z,31.7
2018-06-27T12:00:49.652Z,31.6
2018-06-27T12:01:51.617Z,31.6
2018-06-27T12:02:56.807Z,32.0
2018-06-27T12:03:58.685Z,32.5
2018-06-27T12:05:00.780Z,32.4
2018-06-27T12:06:04.157Z,32.8
2018-06-27T12:07:07.829Z,33.2
2018-06-27T12:08:09.547Z,33.6
2018-06-27T12:09:14.937Z,33.9
2018-06-27T12:10:23.865Z,33.9
2018-06-27T12:11:25.750Z,33.7
2018-06-27T12:12:27.701Z,33.6
2018-06-27T12:13:29.710Z,32.9
2018-06-27T12:14:31.464Z,32.5
2018-06-27T12:15:33.234Z,32.1
2018-06-27T12:16:35.399Z,31.8
2018-06-27T12:17:37.178Z,31.9
2018-06-27T12:18:38.953Z,32.1
2018-06-27T12:19:40.614Z,32.5
2018-06-27T12:20:42.736Z,32.5
2018-06-27T12:21:44.586Z,32.6
2018-06-27T12:22:46.366Z,32.7
2018-06-27T12:23:48.188Z,33.1
2018-06-27T12:24:50.415Z,33.3
2018-06-27T12:25:52.334Z,33.2
2018-06-27T12:26:54.977Z,33.2
2018-06-27T12:27:56.618Z,33.1
2018-06-27T12:28:58.547Z,33.0
2018-06-27T12:30:00.670Z,33.0
2018-06-27T12:31:02.510Z,33.3
2018-06-27T12:32:04.440Z,33.5
2018-06-27T12:33:06.141Z,33.4
2018-06-27T12:34:08.127Z,33.2
2018-06-27T12:35:09.858Z,33.1
2018-06-27T12:36:11.673Z,33.4
2018-06-27T12:37:13.559Z,33.2
2018-06-27T12:38:15.437Z,33.7
2018-06-27T12:39:17.192Z,33.8
2018-06-27T12:40:19.036Z,34.0
2018-06-27T12:41:20.785Z,34.3
2018-06-27T12:42:22.844Z,34.3
2018-06-27T12:43:24.624Z,34.2
2018-06-27T12:44:26.506Z,34.0
2018-06-27T12:45:28.304Z,33.9
2018-06-27T12:46:30.040Z,33.4
2018-06-27T12:47:31.798Z,33.1
2018-06-27T12:48:33.501Z,33.1
2018-06-27T12:49:35.874Z,32.4
2018-06-27T12:50:37.534Z,31.8
2018-06-27T12:51:39.217Z,31.7
2018-06-27T12:52:41.783Z,31.6
2018-06-27T12:53:44.071Z,31.6
2018-06-27T12:54:45.730Z,31.5
2018-06-27T12:55:47.743Z,31.2
2018-06-27T12:56:49.698Z,31.5
2018-06-27T12:57:51.554Z,31.7
2018-06-27T12:58:53.444Z,31.9
2018-06-27T12:59:55.320Z,32.4
2018-06-27T13:00:56.946Z,32.7
2018-06-27T13:01:58.801Z,32.7
2018-06-27T13:03:00.453Z,32.4
2018-06-27T13:04:02.050Z,32.4
2018-06-27T13:05:03.683Z,32.5
2018-06-27T13:06:05.916Z,32.4
2018-06-27T13:07:08.093Z,32.5
2018-06-27T13:08:10.179Z,32.7
2018-06-27T13:09:11.927Z,33.0
2018-06-27T13:10:13.419Z,32.8
2018-06-27T13:11:15.092Z,33.1
2018-06-27T13:12:16.712Z,32.9
2018-06-27T13:13:18.360Z,33.1
2018-06-27T13:14:20.032Z,33.4
2018-06-27T13:15:22.048Z,33.5
2018-06-27T13:16:23.624Z,33.8
2018-06-27T13:17:25.261Z,33.9
2018-06-27T13:18:26.917Z,33.9
2018-06-27T13:19:29.991Z,33.8
2018-06-27T13:20:32.239Z,34.1
2018-06-27T13:21:34.779Z,34.3
2018-06-27T13:22:36.461Z,34.3
2018-06-27T13:23:38.113Z,33.9
2018-06-27T13:24:40.858Z,33.7
2018-06-27T13:25:42.454Z,33.8
2018-06-27T13:26:44.038Z,34.1
2018-06-27T13:27:46.541Z,34.3
2018-06-27T13:28:48.444Z,34.1
2018-06-27T13:29:50.367Z,34.2
2018-06-27T13:30:52.506Z,34.3
2018-06-27T13:31:54.174Z,34.1
2018-06-27T13:32:56.419Z,33.9
2018-06-27T13:33:57.999Z,33.7
2018-06-27T13:35:00.379Z,33.5
2018-06-27T13:36:02.003Z,33.4
2018-06-27T13:37:03.649Z,33.8
2018-06-27T13:38:05.790Z,33.8
2018-06-27T13:39:07.793Z,33.8
2018-06-27T13:40:10.071Z,33.7
2018-06-27T13:41:12.467Z,33.5
2018-06-27T13:42:14.101Z,33.4
2018-06-27T13:43:15.776Z,33.8